createdAt,value
2023-04-12T00:00:23.363Z,100613.28
2023-04-12T00:02:54.137Z,100607.88
2023-04-12T00:05:27.323Z,100600.41
2023-04-12T00:07:55.863Z,100589.94
2023-04-12T00:10:24.579Z,100591.06
2023-04-12T00:12:52.852Z,100583.66
2023-04-12T00:15:21.250Z,100567.38
2023-04-12T00:17:49.669Z,100561.88
2023-04-12T00:20:18.282Z,100557.19
2023-04-12T00:22:47.900Z,100550.94
2023-04-12T00:25:16.355Z,100544.63
2023-04-12T00:27:44.680Z,100538.84
2023-04-12T00:30:13.744Z,100534.84
2023-04-12T00:32:42.800Z,100528.50
2023-04-12T00:35:11.259Z,100519.91
2023-04-12T00:37:39.618Z,100522.19
2023-04-12T00:40:12.292Z,100524.06
2023-04-12T00:42:40.587Z,100511.66
2023-04-12T00:45:10.108Z,100499.97
2023-04-12T00:47:39.505Z,100487.88
2023-04-12T00:50:09.719Z,100485.09
2023-04-12T00:52:39.184Z,100476.50
2023-04-12T00:55:10.975Z,100473.31
2023-04-12T00:57:41.513Z,100463.97
2023-04-12T01:00:13.068Z,100459.97
2023-04-12T01:02:47.746Z,100466.88
2023-04-12T01:05:22.362Z,100453.72
2023-04-12T01:08:04.973Z,100449.75
2023-04-12T01:10:46.303Z,100444.69
2023-04-12T01:13:28.710Z,100428.03
2023-04-12T01:16:05.690Z,100424.56
2023-04-12T01:18:41.952Z,100418.75
2023-04-12T01:21:16.701Z,100411.81
2023-04-12T01:24:07.825Z,100413.72
2023-04-12T01:26:45.164Z,100400.13
2023-04-12T01:29:18.170Z,100398.19
2023-04-12T01:31:53.621Z,100377.00
2023-04-12T01:34:24.578Z,100362.66
2023-04-12T01:36:54.578Z,100364.59
2023-04-12T01:39:23.186Z,100366.88
2023-04-12T01:41:51.626Z,100358.34
2023-04-12T01:44:21.285Z,100344.06
2023-04-12T01:46:50.645Z,100337.88
2023-04-12T01:49:20.333Z,100329.34
2023-04-12T01:51:54.949Z,100319.66
2023-04-12T01:54:26.056Z,100309.22
2023-04-12T01:56:58.817Z,100306.50
2023-04-12T01:59:34.277Z,100300.31
2023-04-12T02:02:04.312Z,100296.38
2023-04-12T02:04:33.808Z,100297.50
2023-04-12T02:07:02.410Z,100294.81
2023-04-12T02:09:31.221Z,100285.16
2023-04-12T02:11:59.561Z,100290.97
2023-04-12T02:14:31.508Z,100276.69
2023-04-12T02:17:02.541Z,100272.78
2023-04-12T02:19:30.652Z,100258.88
2023-04-12T02:21:58.899Z,100260.00
2023-04-12T02:24:27.438Z,100258.44
2023-04-12T02:26:56.481Z,100244.94
2023-04-12T02:29:24.707Z,100239.91
2023-04-12T02:31:54.316Z,100240.25
2023-04-12T02:34:22.712Z,100224.41
2023-04-12T02:36:51.479Z,100216.69
2023-04-12T02:39:22.175Z,100205.13
2023-04-12T02:41:50.566Z,100193.13
2023-04-12T02:44:18.832Z,100168.38
2023-04-12T02:46:47.053Z,100168.06
2023-04-12T02:49:16.618Z,100161.06
2023-04-12T02:51:45.409Z,100143.31
2023-04-12T02:54:13.715Z,100136.00
2023-04-12T02:56:43.879Z,100124.06
2023-04-12T02:59:12.209Z,100131.38
2023-04-12T03:01:40.585Z,100129.47
2023-04-12T03:04:08.928Z,100117.13
2023-04-12T03:06:40.225Z,100115.56
2023-04-12T03:09:08.871Z,100105.53
2023-04-12T03:11:37.313Z,100100.16
2023-04-12T03:14:05.584Z,100098.69
2023-04-12T03:16:35.592Z,100078.66
2023-04-12T03:19:04.317Z,100076.31
2023-04-12T03:21:33.355Z,100072.38
2023-04-12T03:24:04.362Z,100068.53
2023-04-12T03:26:33.017Z,100060.44
2023-04-12T03:29:05.152Z,100058.88
2023-04-12T03:31:33.643Z,100050.38
2023-04-12T03:34:02.082Z,100051.53
2023-04-12T03:36:31.279Z,100035.28
2023-04-12T03:38:59.568Z,100027.53
2023-04-12T03:41:30.222Z,100034.41
2023-04-12T03:43:58.878Z,100028.22
2023-04-12T03:46:27.379Z,100017.41
2023-04-12T03:48:56.767Z,100017.31
2023-04-12T03:51:26.975Z,100006.91
2023-04-12T03:53:55.674Z,100009.22
2023-04-12T03:56:24.108Z,100011.13
2023-04-12T03:58:53.685Z,100001.81
2023-04-12T04:01:23.701Z,99996.41
2023-04-12T04:03:52.062Z,99991.81
2023-04-12T04:06:20.465Z,99983.28
2023-04-12T04:08:48.701Z,99983.66
2023-04-12T04:11:16.957Z,99973.22
2023-04-12T04:13:46.566Z,99982.03
2023-04-12T04:16:16.222Z,99967.00
2023-04-12T04:18:44.532Z,99972.03
2023-04-12T04:21:14.260Z,99964.72
2023-04-12T04:23:44.971Z,99958.91
2023-04-12T04:26:13.897Z,99948.13
2023-04-12T04:28:45.024Z,99950.81
2023-04-12T04:31:17.627Z,99940.41
2023-04-12T04:33:46.097Z,99939.63
2023-04-12T04:36:16.716Z,99944.56
2023-04-12T04:38:45.599Z,99941.41
2023-04-12T04:41:14.229Z,99937.09
2023-04-12T04:43:42.684Z,99931.25
2023-04-12T04:46:12.149Z,99928.22
2023-04-12T04:48:42.024Z,99923.56
2023-04-12T04:51:10.361Z,99925.84
2023-04-12T04:53:38.653Z,99928.03
2023-04-12T04:56:08.376Z,99917.97
2023-04-12T04:58:36.932Z,99915.28
2023-04-12T05:01:05.479Z,99914.84
2023-04-12T05:03:34.249Z,99909.47
2023-04-12T05:06:04.364Z,99903.66
2023-04-12T05:08:32.573Z,99902.09
2023-04-12T05:11:00.829Z,99903.19
2023-04-12T05:13:29.142Z,99894.69
2023-04-12T05:15:57.371Z,99895.88
2023-04-12T05:18:25.637Z,99889.69
2023-04-12T05:20:53.837Z,99889.28
2023-04-12T05:23:23.475Z,99885.44
2023-04-12T05:25:51.776Z,99878.16
2023-04-12T05:28:20.408Z,99882.38
2023-04-12T05:30:48.696Z,99887.00
2023-04-12T05:33:17.187Z,99872.31
2023-04-12T05:35:45.668Z,99874.59
2023-04-12T05:38:13.939Z,99872.66
2023-04-12T05:40:44.391Z,99866.13
2023-04-12T05:43:13.513Z,99870.75
2023-04-12T05:45:42.301Z,99863.44
2023-04-12T05:48:10.686Z,99867.38
2023-04-12T05:50:39.050Z,99864.66
2023-04-12T05:53:07.430Z,99865.44
2023-04-12T05:55:37.763Z,99851.19
2023-04-12T05:58:08.024Z,99848.84
2023-04-12T06:00:37.752Z,99846.16
2023-04-12T06:03:06.172Z,99852.34
2023-04-12T06:05:35.699Z,99854.66
2023-04-12T06:08:05.310Z,99846.59
2023-04-12T06:10:33.797Z,99846.19
2023-04-12T06:13:02.563Z,99841.56
2023-04-12T06:15:33.595Z,99837.81
2023-04-12T06:18:02.117Z,99837.81
2023-04-12T06:20:30.607Z,99835.53
2023-04-12T06:22:58.955Z,99835.13
2023-04-12T06:25:27.240Z,99830.16
2023-04-12T06:27:55.537Z,99827.47
2023-04-12T06:30:23.767Z,99815.94
2023-04-12T06:32:53.453Z,99816.38
2023-04-12T06:35:22.505Z,99816.44
2023-04-12T06:37:50.829Z,99809.13
2023-04-12T06:40:19.671Z,99802.59
2023-04-12T06:42:48.163Z,99809.56
2023-04-12T06:45:16.428Z,99800.69
2023-04-12T06:47:44.650Z,99794.19
2023-04-12T06:50:14.406Z,99788.06
2023-04-12T06:52:42.638Z,99793.47
2023-04-12T06:55:11.273Z,99788.84
2023-04-12T06:57:39.677Z,99786.59
2023-04-12T07:00:09.833Z,99794.72
2023-04-12T07:02:38.994Z,99786.25
2023-04-12T07:05:08.177Z,99787.47
2023-04-12T07:07:37.747Z,99772.06
2023-04-12T07:10:07.968Z,99769.78
2023-04-12T07:12:36.224Z,99765.22
2023-04-12T07:15:05.114Z,99760.19
2023-04-12T07:17:33.954Z,99760.59
2023-04-12T07:20:02.314Z,99748.28
2023-04-12T07:22:30.627Z,99747.91
2023-04-12T07:25:00.624Z,99744.50
2023-04-12T07:27:28.881Z,99751.44
2023-04-12T07:29:58.106Z,99756.47
2023-04-12T07:32:27.461Z,99753.78
2023-04-12T07:34:56.040Z,99755.34
2023-04-12T07:37:24.315Z,99758.09
2023-04-12T07:39:53.052Z,99753.06
2023-04-12T07:42:22.940Z,99751.56
2023-04-12T07:44:51.224Z,99752.72
2023-04-12T07:47:19.590Z,99759.31
2023-04-12T07:49:47.870Z,99746.22
2023-04-12T07:52:16.272Z,99753.59
2023-04-12T07:54:44.445Z,99747.47
2023-04-12T07:57:12.653Z,99744.03
2023-04-12T07:59:42.296Z,99742.53
2023-04-12T08:02:10.609Z,99748.69
2023-04-12T08:04:39.189Z,99755.69
2023-04-12T08:07:07.483Z,99750.69
2023-04-12T08:09:36.029Z,99751.88
2023-04-12T08:12:04.302Z,99750.75
2023-04-12T08:14:32.590Z,99743.81
2023-04-12T08:17:02.194Z,99731.16
2023-04-12T08:19:30.428Z,99741.19
2023-04-12T08:21:58.924Z,99738.16
2023-04-12T08:24:27.272Z,99737.41
2023-04-12T08:26:56.138Z,99740.91
2023-04-12T08:29:24.470Z,99751.75
2023-04-12T08:31:52.980Z,99749.06
2023-04-12T08:34:24.556Z,99746.78
2023-04-12T08:36:52.790Z,99763.00
2023-04-12T08:39:21.165Z,99758.81
2023-04-12T08:41:50.016Z,99763.84
2023-04-12T08:44:19.079Z,99759.63
2023-04-12T08:46:48.182Z,99758.91
2023-04-12T08:49:18.728Z,99767.81
2023-04-12T08:51:48.389Z,99768.63
2023-04-12T08:54:16.604Z,99770.19
2023-04-12T08:56:46.064Z,99765.22
2023-04-12T08:59:15.437Z,99773.78
2023-04-12T09:01:43.766Z,99768.91
2023-04-12T09:04:12.383Z,99764.72
2023-04-12T09:06:41.550Z,99757.44
2023-04-12T09:09:11.643Z,99759.88
2023-04-12T09:11:40.285Z,99752.59
2023-04-12T09:14:23.013Z,99760.78
2023-04-12T09:16:51.782Z,99758.50
2023-04-12T09:19:33.495Z,99767.88
2023-04-12T09:22:02.367Z,99762.88
2023-04-12T09:24:32.033Z,99770.63
2023-04-12T09:27:04.876Z,99770.25
2023-04-12T09:29:35.085Z,99769.47
2023-04-12T09:32:06.308Z,99775.63
2023-04-12T09:34:36.796Z,99769.41
2023-04-12T09:37:16.066Z,99762.41
2023-04-12T09:39:45.743Z,99757.72
2023-04-12T09:42:32.237Z,99746.13
2023-04-12T09:45:03.169Z,99744.97
2023-04-12T09:47:41.626Z,99742.28
2023-04-12T09:50:11.061Z,99748.84
2023-04-12T09:52:40.444Z,99748.91
2023-04-12T09:55:12.138Z,99747.78
2023-04-12T09:57:43.776Z,99757.84
2023-04-12T10:00:17.716Z,99756.31
2023-04-12T10:02:52.020Z,99754.81
2023-04-12T10:05:26.313Z,99749.78
2023-04-12T10:07:55.526Z,99747.88
2023-04-12T10:10:26.000Z,99747.88
2023-04-12T10:12:54.339Z,99754.09
2023-04-12T10:15:22.664Z,99750.25
2023-04-12T10:17:53.519Z,99748.31
2023-04-12T10:20:26.366Z,99755.66
2023-04-12T10:22:59.363Z,99753.38
2023-04-12T10:25:32.043Z,99766.53
2023-04-12T10:28:16.465Z,99763.44
2023-04-12T10:30:45.026Z,99768.84
2023-04-12T10:33:16.870Z,99761.13
2023-04-12T10:35:57.435Z,99760.75
2023-04-12T10:38:27.303Z,99744.53
2023-04-12T10:41:17.860Z,99742.59
2023-04-12T10:43:47.887Z,99726.34
2023-04-12T10:46:51.398Z,99737.94
2023-04-12T10:49:20.389Z,99737.56
2023-04-12T10:52:14.970Z,99746.44
2023-04-12T10:54:43.870Z,99752.63
2023-04-12T10:57:45.543Z,99746.44
2023-04-12T11:00:15.772Z,99752.66
2023-04-12T11:03:12.925Z,99760.41
2023-04-12T11:06:20.101Z,99743.38
2023-04-12T11:08:57.141Z,99755.78
2023-04-12T11:11:27.562Z,99761.19
2023-04-12T11:13:59.742Z,99764.28
2023-04-12T11:16:28.023Z,99763.50
2023-04-12T11:18:56.748Z,99757.31
2023-04-12T11:21:26.736Z,99758.09
2023-04-12T11:23:56.540Z,99755.38
2023-04-12T11:26:25.527Z,99751.50
2023-04-12T11:28:56.153Z,99748.44
2023-04-12T11:31:26.281Z,99734.06
2023-04-12T11:33:54.584Z,99737.94
2023-04-12T11:36:22.936Z,99729.41
2023-04-12T11:38:51.276Z,99732.88
2023-04-12T11:41:19.523Z,99726.25
2023-04-12T11:43:48.612Z,99736.28
2023-04-12T11:46:18.367Z,99747.00
2023-04-12T11:48:48.247Z,99742.22
2023-04-12T11:51:29.858Z,99749.41
2023-04-12T11:54:00.521Z,99749.66
2023-04-12T11:56:31.864Z,99741.91
2023-04-12T11:59:00.328Z,99743.44
2023-04-12T12:01:29.334Z,99736.16
2023-04-12T12:04:00.830Z,99745.56
2023-04-12T12:06:30.491Z,99742.91
2023-04-12T12:08:59.323Z,99740.28
2023-04-12T12:11:28.101Z,99736.81
2023-04-12T12:13:57.896Z,99728.28
2023-04-12T12:16:28.776Z,99736.03
2023-04-12T12:18:59.074Z,99735.22
2023-04-12T12:21:28.604Z,99741.34
2023-04-12T12:23:58.673Z,99743.91
2023-04-12T12:26:28.719Z,99747.72
2023-04-12T12:29:00.296Z,99738.34
2023-04-12T12:31:29.838Z,99729.69
2023-04-12T12:34:03.021Z,99735.81
2023-04-12T12:36:33.772Z,99743.91
2023-04-12T12:39:09.325Z,99768.47
2023-04-12T12:41:38.147Z,99764.41
2023-04-12T12:44:08.054Z,99770.03
2023-04-12T12:46:51.970Z,99770.16
2023-04-12T12:49:23.514Z,99781.94
2023-04-12T12:51:52.319Z,99777.31
2023-04-12T12:54:36.873Z,99781.66
2023-04-12T12:57:08.997Z,99786.72
2023-04-12T12:59:37.314Z,99784.41
2023-04-12T13:02:07.460Z,99790.59
2023-04-12T13:04:37.402Z,99791.78
2023-04-12T13:07:06.103Z,99783.66
2023-04-12T13:09:34.397Z,99789.09
2023-04-12T13:12:03.372Z,99782.09
2023-04-12T13:14:31.837Z,99785.97
2023-04-12T13:17:00.065Z,99795.25
2023-04-12T13:19:28.334Z,99792.94
2023-04-12T13:21:57.943Z,99799.13
2023-04-12T13:24:26.394Z,99806.09
2023-04-12T13:26:54.669Z,99811.47
2023-04-12T13:29:23.008Z,99819.94
2023-04-12T13:31:51.379Z,99834.59
2023-04-12T13:34:20.097Z,99827.19
2023-04-12T13:36:48.403Z,99825.56
2023-04-12T13:39:18.040Z,99827.81
2023-04-12T13:41:46.348Z,99827.28
2023-04-12T13:44:14.584Z,99812.09
2023-04-12T13:46:42.994Z,99813.16
2023-04-12T13:49:11.424Z,99800.75
2023-04-12T13:51:39.918Z,99799.59
2023-04-12T13:54:08.235Z,99803.06
2023-04-12T13:56:37.828Z,99811.22
2023-04-12T13:59:06.154Z,99795.03
2023-04-12T14:01:34.491Z,99804.75
2023-04-12T14:04:04.098Z,99800.94
2023-04-12T14:06:33.158Z,99814.94
2023-04-12T14:09:01.450Z,99836.97
2023-04-12T14:11:29.759Z,99856.22
2023-04-12T14:13:59.389Z,99865.84
2023-04-12T14:16:27.606Z,99895.09
2023-04-12T14:18:56.070Z,99893.66
2023-04-12T14:21:29.010Z,99896.47
2023-04-12T14:23:57.533Z,99871.13
2023-04-12T14:26:26.390Z,99867.81
2023-04-12T14:28:54.776Z,99853.00
2023-04-12T14:31:25.543Z,99857.06
2023-04-12T14:33:54.481Z,99845.38
2023-04-12T14:36:22.808Z,99848.81
2023-04-12T14:38:51.186Z,99828.09
2023-04-12T14:41:19.509Z,99816.25
2023-04-12T14:43:47.821Z,99820.25
2023-04-12T14:46:17.368Z,99815.69
2023-04-12T14:48:47.118Z,99814.59
2023-04-12T14:51:15.997Z,99806.97
2023-04-12T14:53:44.379Z,99815.44
2023-04-12T14:56:24.233Z,99801.63
2023-04-12T14:58:55.157Z,99816.31
2023-04-12T15:01:25.342Z,99824.16
2023-04-12T15:03:55.713Z,99823.06
2023-04-12T15:06:26.162Z,99816.19
2023-04-12T15:08:55.395Z,99826.72
2023-04-12T15:11:30.004Z,99834.97
2023-04-12T15:13:58.455Z,99831.09
2023-04-12T15:16:28.903Z,99831.09
2023-04-12T15:19:03.591Z,99831.47
2023-04-12T15:21:34.793Z,99838.81
2023-04-12T15:24:03.065Z,99842.28
2023-04-12T15:26:31.334Z,99861.97
2023-04-12T15:28:59.640Z,99856.16
2023-04-12T15:31:28.279Z,99862.72
2023-04-12T15:33:58.476Z,99876.56
2023-04-12T15:36:33.629Z,99893.19
2023-04-12T15:39:04.822Z,99912.41
2023-04-12T15:41:35.099Z,99913.50
2023-04-12T15:44:03.679Z,99922.16
2023-04-12T15:46:31.901Z,99912.72
2023-04-12T15:49:02.141Z,99906.75
2023-04-12T15:51:32.037Z,99889.63
2023-04-12T15:54:00.871Z,99879.06
2023-04-12T15:56:31.470Z,99875.41
2023-04-12T15:59:01.190Z,99856.84
2023-04-12T16:01:29.814Z,99862.56
2023-04-12T16:03:58.456Z,99857.91
2023-04-12T16:06:30.394Z,99865.59
2023-04-12T16:08:58.812Z,99855.56
2023-04-12T16:11:27.566Z,99853.66
2023-04-12T16:13:56.620Z,99823.19
2023-04-12T16:16:25.411Z,99838.25
2023-04-12T16:18:55.870Z,99825.53
2023-04-12T16:21:26.460Z,99835.16
2023-04-12T16:23:56.126Z,99827.81
2023-04-12T16:26:24.488Z,99827.13
2023-04-12T16:28:53.765Z,99814.06
2023-04-12T16:31:22.858Z,99814.81
2023-04-12T16:33:52.200Z,99812.13
2023-04-12T16:36:23.410Z,99817.03
2023-04-12T16:38:54.589Z,99813.19
2023-04-12T16:41:24.034Z,99817.03
2023-04-12T16:43:53.966Z,99805.09
2023-04-12T16:46:22.856Z,99811.63
2023-04-12T16:48:51.334Z,99801.63
2023-04-12T16:51:19.629Z,99817.44
2023-04-12T16:53:48.376Z,99822.81
2023-04-12T16:56:17.452Z,99818.50
2023-04-12T16:58:48.889Z,99820.00
2023-04-12T17:01:17.841Z,99824.63
2023-04-12T17:03:49.218Z,99825.41
2023-04-12T17:06:19.008Z,99835.13
2023-04-12T17:08:47.818Z,99835.13
2023-04-12T17:11:16.362Z,99826.25
2023-04-12T17:13:46.738Z,99831.66
2023-04-12T17:16:16.213Z,99826.66
2023-04-12T17:18:44.540Z,99829.38
2023-04-12T17:21:12.860Z,99832.47
2023-04-12T17:23:41.266Z,99827.09
2023-04-12T17:26:09.837Z,99834.00
2023-04-12T17:28:39.665Z,99826.34
2023-04-12T17:31:10.288Z,99823.66
2023-04-12T17:33:38.719Z,99820.94
2023-04-12T17:36:11.477Z,99822.88
2023-04-12T17:38:40.061Z,99819.41
2023-04-12T17:41:10.135Z,99828.25
2023-04-12T17:43:38.394Z,99822.09
2023-04-12T17:46:08.946Z,99807.81
2023-04-12T17:48:37.352Z,99826.34
2023-04-12T17:51:09.761Z,99819.81
2023-04-12T17:53:38.165Z,99823.69
2023-04-12T17:56:08.117Z,99808.72
2023-04-12T17:58:37.155Z,99813.34
2023-04-12T18:01:06.040Z,99817.28
2023-04-12T18:03:35.915Z,99816.53
2023-04-12T18:06:04.654Z,99816.13
2023-04-12T18:08:34.174Z,99812.72
2023-04-12T18:11:04.038Z,99820.81
2023-04-12T18:13:32.338Z,99820.06
2023-04-12T18:16:00.673Z,99826.59
2023-04-12T18:18:29.003Z,99822.75
2023-04-12T18:20:58.601Z,99826.94
2023-04-12T18:23:26.993Z,99819.63
2023-04-12T18:25:55.456Z,99821.16
2023-04-12T18:28:23.955Z,99815.34
2023-04-12T18:30:52.336Z,99821.44
2023-04-12T18:33:20.613Z,99818.75
2023-04-12T18:35:48.973Z,99824.84
2023-04-12T18:38:21.622Z,99831.75
2023-04-12T18:40:50.048Z,99830.94
2023-04-12T18:43:18.455Z,99832.75
2023-04-12T18:45:46.723Z,99829.28
2023-04-12T18:48:14.950Z,99833.00
2023-04-12T18:50:43.409Z,99831.31
2023-04-12T18:53:12.065Z,99827.75
2023-04-12T18:55:42.090Z,99830.34
2023-04-12T18:58:10.514Z,99834.16
2023-04-12T19:00:38.874Z,99827.16
2023-04-12T19:03:07.534Z,99834.41
2023-04-12T19:05:36.083Z,99838.59
2023-04-12T19:08:04.398Z,99836.28
2023-04-12T19:10:32.962Z,99836.63
2023-04-12T19:13:02.651Z,99840.03
2023-04-12T19:15:30.998Z,99851.97
2023-04-12T19:18:01.122Z,99851.97
2023-04-12T19:20:29.776Z,99852.34
2023-04-12T19:22:58.436Z,99865.44
2023-04-12T19:25:30.850Z,99864.66
2023-04-12T19:27:59.953Z,99862.34
2023-04-12T19:30:31.143Z,99855.50
2023-04-12T19:33:00.127Z,99858.19
2023-04-12T19:35:32.871Z,99854.00
2023-04-12T19:38:01.299Z,99845.50
2023-04-12T19:40:31.130Z,99848.88
2023-04-12T19:42:59.641Z,99853.88
2023-04-12T19:45:29.874Z,99853.81
2023-04-12T19:47:58.349Z,99843.38
2023-04-12T19:50:27.230Z,99844.47
2023-04-12T19:52:55.669Z,99841.28
2023-04-12T19:55:23.955Z,99833.53
2023-04-12T19:57:52.273Z,99832.66
2023-04-12T20:00:23.282Z,99839.50
2023-04-12T20:02:54.489Z,99828.16
2023-04-12T20:05:24.346Z,99830.38
2023-04-12T20:07:56.136Z,99822.94
2023-04-12T20:10:24.549Z,99828.59
2023-04-12T20:12:53.050Z,99825.78
2023-04-12T20:15:21.437Z,99823.78
2023-04-12T20:17:51.952Z,99822.22
2023-04-12T20:20:22.001Z,99824.03
2023-04-12T20:22:52.063Z,99830.16
2023-04-12T20:25:21.222Z,99828.59
2023-04-12T20:27:52.510Z,99831.56
2023-04-12T20:30:22.734Z,99843.03
2023-04-12T20:32:54.470Z,99832.56
2023-04-12T20:35:25.757Z,99834.38
2023-04-12T20:37:54.397Z,99830.78
2023-04-12T20:40:26.945Z,99834.13
2023-04-12T20:42:55.305Z,99837.84
2023-04-12T20:45:23.887Z,99836.97
2023-04-12T20:47:52.444Z,99825.00
2023-04-12T20:50:22.480Z,99825.28
2023-04-12T20:52:53.003Z,99818.34
2023-04-12T20:55:22.724Z,99821.38
2023-04-12T20:57:55.824Z,99820.16
2023-04-12T21:00:24.703Z,99804.75
2023-04-12T21:02:53.059Z,99805.88
2023-04-12T21:05:21.575Z,99816.53
2023-04-12T21:07:51.546Z,99819.16
2023-04-12T21:10:20.048Z,99821.84
2023-04-12T21:12:48.402Z,99814.09
2023-04-12T21:15:18.409Z,99808.72
2023-04-12T21:17:46.614Z,99794.97
2023-04-12T21:20:16.475Z,99784.22
2023-04-12T21:22:47.425Z,99782.28
2023-04-12T21:25:17.832Z,99778.91
2023-04-12T21:27:47.753Z,99768.16
2023-04-12T21:30:16.201Z,99771.97
2023-04-12T21:32:44.624Z,99774.22
2023-04-12T21:35:16.369Z,99766.88
2023-04-12T21:37:44.641Z,99764.19
2023-04-12T21:40:13.549Z,99756.47
2023-04-12T21:42:44.786Z,99754.13
2023-04-12T21:45:14.381Z,99757.97
2023-04-12T21:47:44.130Z,99753.34
2023-04-12T21:50:13.121Z,99747.97
2023-04-12T21:52:41.702Z,99741.13
2023-04-12T21:55:10.402Z,99733.84
2023-04-12T21:57:38.612Z,99729.97
2023-04-12T22:00:10.174Z,99732.34
2023-04-12T22:02:38.888Z,99727.75
2023-04-12T22:05:07.763Z,99718.97
2023-04-12T22:07:36.053Z,99710.53
2023-04-12T22:10:05.274Z,99699.47
2023-04-12T22:12:33.951Z,99698.31
2023-04-12T22:15:02.144Z,99690.25
2023-04-12T22:17:32.060Z,99691.44
2023-04-12T22:20:00.349Z,99692.22
2023-04-12T22:22:29.436Z,99695.63
2023-04-12T22:24:57.640Z,99688.72
2023-04-12T22:27:26.710Z,99673.69
2023-04-12T22:29:55.064Z,99664.50
2023-04-12T22:32:23.340Z,99681.06
2023-04-12T22:35:01.566Z,99678.38
2023-04-12T22:37:36.441Z,99679.94
2023-04-12T22:40:11.358Z,99672.59
2023-04-12T22:42:46.902Z,99666.88
2023-04-12T22:45:16.128Z,99671.16
2023-04-12T22:47:44.656Z,99670.06
2023-04-12T22:50:14.993Z,99668.16
2023-04-12T22:52:43.273Z,99677.06
2023-04-12T22:55:14.077Z,99668.72
2023-04-12T22:57:42.580Z,99658.47
2023-04-12T23:00:17.047Z,99643.50
2023-04-12T23:02:47.730Z,99631.28
2023-04-12T23:05:17.634Z,99629.78
2023-04-12T23:07:46.023Z,99625.94
2023-04-12T23:10:14.360Z,99620.66
2023-04-12T23:12:42.640Z,99619.13
2023-04-12T23:15:12.701Z,99620.00
2023-04-12T23:17:41.125Z,99612.31
2023-04-12T23:20:13.090Z,99622.38
2023-04-12T23:22:57.907Z,99603.22
2023-04-12T23:25:38.606Z,99611.75
2023-04-12T23:28:12.835Z,99614.47
2023-04-12T23:30:44.420Z,99615.69
2023-04-12T23:33:12.943Z,99629.53
2023-04-12T23:35:42.000Z,99594.19
2023-04-12T23:38:15.741Z,99586.97
2023-04-12T23:40:44.536Z,99587.34
2023-04-12T23:43:12.728Z,99585.50
2023-04-12T23:45:41.464Z,99595.56
2023-04-12T23:48:09.809Z,99594.84
2023-04-12T23:50:39.048Z,99590.63
2023-04-12T23:53:07.507Z,99599.13
2023-04-12T23:55:37.340Z,99583.41
2023-04-12T23:58:05.883Z,99580.72
